createdAt,value
2019-02-03T00:01:14.167Z,58.63
2019-02-03T00:03:42.810Z,64.27
2019-02-03T00:06:11.554Z,63.30
2019-02-03T00:08:40.243Z,64.07
2019-02-03T00:11:09.102Z,61.02
2019-02-03T00:13:37.721Z,61.28
2019-02-03T00:16:06.537Z,58.85
2019-02-03T00:18:35.164Z,58.15
2019-02-03T00:21:04.117Z,58.85
2019-02-03T00:23:32.710Z,56.48
2019-02-03T00:26:01.802Z,52.30
2019-02-03T00:28:30.377Z,51.50
2019-02-03T00:30:58.960Z,53.33
2019-02-03T00:33:27.651Z,53.83
2019-02-03T00:35:56.240Z,49.53
2019-02-03T00:38:25.539Z,51.35
2019-02-03T00:40:54.698Z,49.98
2019-02-03T00:43:23.293Z,44.98
2019-02-03T00:45:51.869Z,49.03
2019-02-03T00:48:20.490Z,44.30
2019-02-03T00:50:49.313Z,42.98
2019-02-03T00:53:17.892Z,43.35
2019-02-03T00:55:46.470Z,46.10
2019-02-03T00:58:15.039Z,45.65
2019-02-03T01:00:43.725Z,44.15
2019-02-03T01:03:12.407Z,45.65
2019-02-03T01:05:41.001Z,49.18
2019-02-03T01:08:10.096Z,47.67
2019-02-03T01:10:38.683Z,46.45
2019-02-03T01:13:07.677Z,47.13
2019-02-03T01:15:36.265Z,45.35
2019-02-03T01:18:04.925Z,45.08
2019-02-03T01:20:33.537Z,49.83
2019-02-03T01:23:02.403Z,45.48
2019-02-03T01:25:31.088Z,45.88
2019-02-03T01:27:59.661Z,47.17
2019-02-03T01:30:28.821Z,48.42
2019-02-03T01:32:57.408Z,46.00
2019-02-03T01:35:25.985Z,47.00
2019-02-03T01:37:55.009Z,46.98
2019-02-03T01:40:23.594Z,46.80
2019-02-03T01:42:52.254Z,45.73
2019-02-03T01:45:21.244Z,45.35
2019-02-03T01:47:49.879Z,46.18
2019-02-03T01:50:18.556Z,44.75
2019-02-03T01:52:47.687Z,43.15
2019-02-03T01:55:18.551Z,48.90
2019-02-03T01:57:47.129Z,46.35
2019-02-03T02:00:20.838Z,44.00
2019-02-03T02:02:49.441Z,46.20
2019-02-03T02:05:18.121Z,44.53
2019-02-03T02:07:51.545Z,43.20
2019-02-03T02:10:19.096Z,44.38
2019-02-03T02:12:47.654Z,44.88
2019-02-03T02:15:17.003Z,44.13
2019-02-03T02:17:45.839Z,43.10
2019-02-03T02:20:25.154Z,41.75
2019-02-03T02:22:53.796Z,43.73
2019-02-03T02:25:22.543Z,39.95
2019-02-03T02:27:51.266Z,38.95
2019-02-03T02:30:22.166Z,40.60
2019-02-03T02:32:51.020Z,46.65
2019-02-03T02:35:20.021Z,42.48
2019-02-03T02:37:48.780Z,38.90
2019-02-03T02:40:18.850Z,38.05
2019-02-03T02:42:47.595Z,37.30
2019-02-03T02:45:16.641Z,39.30
2019-02-03T02:47:45.219Z,37.28
2019-02-03T02:53:53.868Z,34.53
2019-02-03T02:56:22.456Z,37.98
2019-02-03T02:58:51.102Z,36.95
2019-02-03T03:01:19.772Z,34.88
2019-02-03T03:03:48.333Z,35.75
2019-02-03T03:06:17.146Z,35.03
2019-02-03T03:08:45.719Z,36.38
2019-02-03T03:11:14.297Z,36.60
2019-02-03T03:13:42.875Z,34.08
2019-02-03T03:16:11.502Z,34.40
2019-02-03T03:18:40.142Z,36.68
2019-02-03T03:21:08.712Z,38.28
2019-02-03T03:23:37.313Z,36.65
2019-02-03T03:26:05.865Z,35.83
2019-02-03T03:28:34.817Z,34.58
2019-02-03T03:31:03.473Z,35.28
2019-02-03T03:33:32.299Z,32.20
2019-02-03T03:36:00.877Z,35.03
2019-02-03T03:38:32.124Z,32.42
2019-02-03T03:41:00.657Z,31.80
2019-02-03T03:43:29.401Z,30.45
2019-02-03T03:45:57.966Z,29.05
2019-02-03T03:48:26.528Z,30.27
2019-02-03T03:50:55.098Z,30.57
2019-02-03T03:53:23.665Z,30.25
2019-02-03T03:55:52.365Z,30.68
2019-02-03T03:58:20.959Z,32.17
2019-02-03T04:00:49.544Z,34.08
2019-02-03T04:03:18.193Z,30.97
2019-02-03T04:05:47.068Z,32.48
2019-02-03T04:08:15.639Z,30.32
2019-02-03T04:10:44.284Z,32.40
2019-02-03T04:13:12.873Z,32.67
2019-02-03T04:15:41.500Z,34.40
2019-02-03T04:18:10.085Z,30.95
2019-02-03T04:20:38.881Z,35.23
2019-02-03T04:23:07.707Z,36.30
2019-02-03T04:25:36.266Z,35.10
2019-02-03T04:28:04.926Z,35.48
2019-02-03T04:30:33.491Z,36.08
2019-02-03T04:33:02.060Z,38.55
2019-02-03T04:35:30.650Z,35.20
2019-02-03T04:37:59.303Z,36.65
2019-02-03T04:40:28.224Z,34.95
2019-02-03T04:42:56.805Z,34.78
2019-02-03T04:45:25.373Z,33.95
2019-02-03T04:47:54.018Z,36.73
2019-02-03T04:50:22.676Z,33.38
2019-02-03T04:52:51.249Z,36.00
2019-02-03T04:55:20.244Z,38.28
2019-02-03T04:57:48.959Z,34.15
2019-02-03T05:00:22.095Z,36.00
2019-02-03T05:02:50.913Z,36.80
2019-02-03T05:05:19.506Z,38.33
2019-02-03T05:07:48.152Z,37.53
2019-02-03T05:10:16.939Z,37.33
2019-02-03T05:12:45.507Z,36.88
2019-02-03T05:15:16.410Z,35.63
2019-02-03T05:17:45.036Z,37.63
2019-02-03T05:20:14.729Z,36.40
2019-02-03T05:22:43.776Z,35.48
2019-02-03T05:25:12.708Z,33.60
2019-02-03T05:27:41.305Z,32.42
2019-02-03T05:30:16.375Z,31.05
2019-02-03T05:32:45.273Z,33.63
2019-02-03T05:35:14.026Z,35.30
2019-02-03T05:37:42.788Z,32.93
2019-02-03T05:40:12.293Z,29.23
2019-02-03T05:42:40.870Z,32.70
2019-02-03T05:45:11.995Z,33.98
2019-02-03T05:47:40.567Z,33.23
2019-02-03T05:50:10.740Z,32.25
2019-02-03T05:52:39.320Z,32.53
2019-02-03T05:55:08.693Z,33.13
2019-02-03T05:57:37.262Z,35.05
2019-02-03T06:00:07.348Z,37.15
2019-02-03T06:02:35.968Z,36.00
2019-02-03T06:05:05.307Z,38.23
2019-02-03T06:07:33.882Z,38.65
2019-02-03T06:10:02.470Z,38.65
2019-02-03T06:12:31.050Z,38.55
2019-02-03T06:14:59.898Z,39.45
2019-02-03T06:17:28.559Z,38.00
2019-02-03T06:19:57.142Z,36.42
2019-02-03T06:22:25.712Z,37.80
2019-02-03T06:24:54.287Z,39.27
2019-02-03T06:27:22.894Z,39.20
2019-02-03T06:29:51.544Z,37.13
2019-02-03T06:32:20.414Z,37.40
2019-02-03T06:34:49.219Z,37.45
2019-02-03T06:37:17.811Z,38.25
2019-02-03T06:39:48.578Z,38.28
2019-02-03T06:42:16.716Z,37.00
2019-02-03T06:44:45.287Z,35.58
2019-02-03T06:47:21.223Z,33.78
2019-02-03T06:49:49.803Z,33.50
2019-02-03T06:52:19.328Z,34.35
2019-02-03T06:54:47.971Z,34.63
2019-02-03T06:57:16.740Z,33.98
2019-02-03T06:59:51.015Z,32.30
2019-02-03T07:02:16.443Z,34.18
2019-02-03T07:04:45.511Z,34.73
2019-02-03T07:07:14.096Z,33.85
2019-02-03T07:09:42.673Z,33.05
2019-02-03T07:12:11.333Z,34.03
2019-02-03T07:14:40.197Z,36.35
2019-02-03T07:17:08.864Z,33.60
2019-02-03T07:19:37.503Z,34.25
2019-02-03T07:22:06.273Z,34.13
2019-02-03T07:24:34.873Z,34.38
2019-02-03T07:27:03.513Z,33.95
2019-02-03T07:29:32.343Z,34.00
2019-02-03T07:32:00.919Z,30.95
2019-02-03T07:34:29.544Z,31.62
2019-02-03T07:36:58.214Z,33.38
2019-02-03T07:39:26.815Z,35.68
2019-02-03T07:41:55.388Z,35.15
2019-02-03T07:44:23.994Z,30.52
2019-02-03T07:46:52.586Z,31.42
2019-02-03T07:49:21.165Z,29.75
2019-02-03T07:51:49.756Z,30.95
2019-02-03T07:54:18.596Z,29.90
2019-02-03T07:56:47.226Z,29.55
2019-02-03T07:59:15.794Z,30.20
2019-02-03T08:01:44.484Z,31.60
2019-02-03T08:04:13.066Z,31.25
2019-02-03T08:06:41.665Z,29.90
2019-02-03T08:09:11.014Z,31.45
2019-02-03T08:11:39.592Z,29.98
2019-02-03T08:14:08.153Z,33.00
2019-02-03T08:16:36.959Z,31.68
2019-02-03T08:19:05.660Z,32.80
2019-02-03T08:21:34.251Z,31.05
2019-02-03T08:24:02.839Z,31.33
2019-02-03T08:26:31.508Z,31.62
2019-02-03T08:29:00.146Z,29.72
2019-02-03T08:31:28.735Z,29.87
2019-02-03T08:33:57.308Z,30.90
2019-02-03T08:36:25.932Z,28.17
2019-02-03T08:38:54.498Z,31.93
2019-02-03T08:41:23.093Z,28.35
2019-02-03T08:43:51.800Z,30.90
2019-02-03T08:46:20.575Z,30.82
2019-02-03T08:48:49.167Z,31.10
2019-02-03T08:51:17.875Z,28.47
2019-02-03T08:53:46.449Z,27.90
2019-02-03T08:56:15.083Z,28.35
2019-02-03T08:58:43.813Z,27.07
2019-02-03T09:01:12.397Z,28.65
2019-02-03T09:03:41.069Z,30.20
2019-02-03T09:06:09.729Z,27.25
2019-02-03T09:08:38.440Z,28.70
2019-02-03T09:11:07.299Z,27.75
2019-02-03T09:13:35.957Z,29.25
2019-02-03T09:16:04.821Z,28.87
2019-02-03T09:18:35.093Z,27.07
2019-02-03T09:21:03.810Z,27.85
2019-02-03T09:23:32.435Z,27.55
2019-02-03T09:26:01.046Z,30.10
2019-02-03T09:28:29.641Z,28.07
2019-02-03T09:30:58.309Z,29.45
2019-02-03T09:33:26.889Z,29.75
2019-02-03T09:35:55.559Z,28.87
2019-02-03T09:38:24.345Z,26.85
2019-02-03T09:41:00.075Z,25.82
2019-02-03T09:43:24.118Z,24.52
2019-02-03T09:45:52.815Z,26.37
2019-02-03T09:48:21.783Z,23.75
2019-02-03T09:50:50.336Z,23.25
2019-02-03T09:53:18.934Z,24.60
2019-02-03T09:55:47.872Z,22.32
2019-02-03T09:58:16.751Z,22.62
2019-02-03T10:00:45.738Z,22.32
2019-02-03T10:03:14.612Z,20.85
2019-02-03T10:05:43.463Z,24.05
2019-02-03T10:08:12.186Z,22.65
2019-02-03T10:10:41.397Z,23.85
2019-02-03T10:13:10.086Z,26.23
2019-02-03T10:15:38.712Z,25.10
2019-02-03T10:18:09.535Z,22.32
2019-02-03T10:20:38.275Z,24.30
2019-02-03T10:23:07.221Z,23.00
2019-02-03T10:25:36.034Z,22.27
2019-02-03T10:28:05.651Z,23.70
2019-02-03T10:30:34.352Z,22.75
2019-02-03T10:33:02.917Z,20.35
2019-02-03T10:35:31.606Z,24.32
2019-02-03T10:38:00.276Z,24.12
2019-02-03T10:40:31.191Z,21.80
2019-02-03T10:43:00.997Z,19.37
2019-02-03T10:45:29.852Z,17.52
2019-02-03T10:47:58.496Z,17.90
2019-02-03T10:50:32.180Z,18.55
2019-02-03T10:53:01.345Z,17.60
2019-02-03T10:55:29.919Z,20.85
2019-02-03T10:57:58.668Z,17.10
2019-02-03T11:00:29.739Z,15.18
2019-02-03T11:02:58.410Z,18.90
2019-02-03T11:05:29.504Z,17.52
2019-02-03T11:07:58.315Z,17.48
2019-02-03T11:10:27.468Z,17.75
2019-02-03T11:12:56.669Z,18.32
2019-02-03T11:15:25.830Z,18.70
2019-02-03T11:17:54.481Z,17.82
2019-02-03T11:20:25.475Z,17.80
2019-02-03T11:22:54.760Z,16.62
2019-02-03T11:25:25.057Z,18.17
2019-02-03T11:27:53.718Z,16.20
2019-02-03T11:30:24.374Z,15.68
2019-02-03T11:33:04.605Z,16.93
2019-02-03T11:35:24.084Z,16.10
2019-02-03T11:37:52.962Z,15.90
2019-02-03T11:40:26.599Z,14.23
2019-02-03T11:42:56.597Z,14.58
2019-02-03T11:45:37.584Z,16.15
2019-02-03T11:48:09.621Z,16.42
2019-02-03T11:50:38.974Z,15.63
2019-02-03T11:53:10.850Z,13.65
2019-02-03T11:55:39.482Z,14.93
2019-02-03T11:58:08.939Z,15.45
2019-02-03T12:00:37.511Z,14.05
2019-02-03T12:03:06.680Z,14.40
2019-02-03T12:05:35.376Z,15.03
2019-02-03T12:08:04.072Z,13.32
2019-02-03T12:10:32.712Z,16.80
2019-02-03T12:13:01.369Z,16.90
2019-02-03T12:15:30.043Z,14.65
2019-02-03T12:18:00.711Z,16.93
2019-02-03T12:20:29.290Z,15.32
2019-02-03T12:22:57.892Z,14.55
2019-02-03T12:25:28.235Z,15.50
2019-02-03T12:27:57.079Z,15.15
2019-02-03T12:30:27.957Z,13.78
2019-02-03T12:32:56.630Z,15.55
2019-02-03T12:35:25.305Z,13.38
2019-02-03T12:37:53.982Z,14.33
2019-02-03T12:40:27.771Z,15.08
2019-02-03T12:42:56.855Z,12.82
2019-02-03T12:45:25.537Z,11.60
2019-02-03T12:47:54.968Z,12.63
2019-02-03T12:50:23.555Z,11.78
2019-02-03T12:52:52.219Z,11.78
2019-02-03T12:55:23.836Z,12.30
2019-02-03T12:57:52.504Z,11.68
2019-02-03T13:00:23.359Z,12.37
2019-02-03T13:02:51.987Z,13.38
2019-02-03T13:05:22.040Z,12.13
2019-02-03T13:07:50.732Z,10.95
2019-02-03T13:10:21.954Z,11.70
2019-02-03T13:12:50.630Z,12.82
2019-02-03T13:15:21.623Z,11.63
2019-02-03T13:17:50.239Z,11.00
2019-02-03T13:20:21.500Z,10.38
2019-02-03T13:22:50.900Z,11.57
2019-02-03T13:25:19.511Z,12.60
2019-02-03T13:27:48.183Z,11.20
2019-02-03T13:30:20.368Z,11.95
2019-02-03T13:32:49.036Z,10.85
2019-02-03T13:35:18.133Z,10.85
2019-02-03T13:37:46.973Z,8.68
2019-02-03T13:40:16.016Z,10.10
2019-02-03T13:42:44.839Z,10.35
2019-02-03T13:45:20.993Z,10.05
2019-02-03T13:47:44.707Z,9.60
2019-02-03T13:50:19.228Z,9.38
2019-02-03T13:52:47.143Z,10.48
2019-02-03T13:55:15.921Z,9.65
2019-02-03T13:57:44.530Z,9.00
2019-02-03T14:00:15.859Z,10.18
2019-02-03T14:02:44.817Z,9.18
2019-02-03T14:05:13.862Z,8.78
2019-02-03T14:07:42.493Z,8.90
2019-02-03T14:10:14.018Z,8.90
2019-02-03T14:12:49.693Z,9.53
2019-02-03T14:15:14.236Z,9.60
2019-02-03T14:17:42.804Z,9.53
2019-02-03T14:20:14.983Z,8.63
2019-02-03T14:22:43.590Z,9.83
2019-02-03T14:25:12.748Z,9.80
2019-02-03T14:27:41.391Z,9.28
2019-02-03T14:30:14.309Z,8.55
2019-02-03T14:32:42.916Z,8.58
2019-02-03T14:35:11.608Z,9.10
2019-02-03T14:37:40.273Z,9.25
2019-02-03T14:40:09.897Z,9.13
2019-02-03T14:42:47.761Z,7.87
2019-02-03T14:45:10.557Z,8.83
2019-02-03T14:47:39.192Z,9.20
2019-02-03T14:50:09.803Z,8.75
2019-02-03T14:52:38.394Z,9.25
2019-02-03T14:55:09.455Z,9.70
2019-02-03T14:57:37.979Z,9.85
2019-02-03T15:00:13.034Z,9.10
2019-02-03T15:02:41.623Z,11.12
2019-02-03T15:05:10.271Z,10.08
2019-02-03T15:07:39.354Z,10.08
2019-02-03T15:10:09.089Z,8.80
2019-02-03T15:12:38.355Z,9.10
2019-02-03T15:15:09.674Z,9.00
2019-02-03T15:17:38.254Z,9.65
2019-02-03T15:20:09.480Z,10.05
2019-02-03T15:22:38.111Z,10.15
2019-02-03T15:25:07.236Z,9.88
2019-02-03T15:27:35.870Z,9.90
2019-02-03T15:30:18.866Z,10.50
2019-02-03T15:32:38.437Z,9.80
2019-02-03T15:35:08.349Z,10.05
2019-02-03T15:37:37.023Z,9.98
2019-02-03T15:40:07.329Z,10.25
2019-02-03T15:42:36.246Z,10.75
2019-02-03T15:45:06.541Z,11.53
2019-02-03T15:47:35.765Z,10.28
2019-02-03T15:50:06.452Z,10.68
2019-02-03T15:52:35.120Z,10.30
2019-02-03T15:55:03.820Z,10.78
2019-02-03T15:57:34.122Z,12.00
2019-02-03T16:00:03.286Z,10.20
2019-02-03T16:02:31.880Z,11.53
2019-02-03T16:05:00.644Z,10.53
2019-02-03T16:07:29.223Z,10.98
2019-02-03T16:09:57.960Z,10.70
2019-02-03T16:12:26.553Z,10.50
2019-02-03T16:14:55.390Z,10.40
2019-02-03T16:17:23.956Z,10.70
2019-02-03T16:19:52.664Z,10.95
2019-02-03T16:22:21.255Z,9.43
2019-02-03T16:24:49.983Z,9.50
2019-02-03T16:27:19.032Z,9.58
2019-02-03T16:29:47.796Z,10.93
2019-02-03T16:32:16.395Z,11.43
2019-02-03T16:34:45.079Z,10.72
2019-02-03T16:37:14.160Z,11.75
2019-02-03T16:39:42.734Z,11.12
2019-02-03T16:42:12.759Z,11.20
2019-02-03T16:44:41.488Z,10.35
2019-02-03T16:47:10.371Z,10.48
2019-02-03T16:49:38.956Z,11.30
2019-02-03T16:52:09.231Z,11.60
2019-02-03T16:54:38.176Z,11.22
2019-02-03T16:57:06.764Z,12.78
2019-02-03T16:59:35.915Z,12.50
2019-02-03T17:02:04.732Z,10.80
2019-02-03T17:04:33.930Z,11.00
2019-02-03T17:07:02.679Z,10.55
2019-02-03T17:09:31.393Z,10.58
2019-02-03T17:12:00.292Z,10.25
2019-02-03T17:14:29.953Z,10.43
2019-02-03T17:16:58.596Z,10.28
2019-02-03T17:19:27.192Z,10.80
2019-02-03T17:21:55.893Z,10.88
2019-02-03T17:24:24.527Z,11.03
2019-02-03T17:26:54.433Z,11.10
2019-02-03T17:29:23.315Z,11.93
2019-02-03T17:31:51.953Z,12.33
2019-02-03T17:34:20.583Z,11.10
2019-02-03T17:36:49.260Z,12.03
2019-02-03T17:39:18.005Z,9.93
2019-02-03T17:41:46.973Z,10.55
2019-02-03T17:44:19.870Z,10.10
2019-02-03T17:46:46.389Z,10.40
2019-02-03T17:49:16.731Z,9.65
2019-02-03T17:51:46.708Z,9.58
2019-02-03T17:54:15.766Z,8.90
2019-02-03T17:56:44.370Z,8.80
2019-02-03T17:59:12.936Z,8.58
2019-02-03T18:01:41.540Z,8.05
2019-02-03T18:04:10.117Z,8.55
2019-02-03T18:06:38.733Z,8.13
2019-02-03T18:09:09.281Z,8.35
2019-02-03T18:11:38.301Z,9.90
2019-02-03T18:14:06.887Z,8.15
2019-02-03T18:16:35.559Z,9.20
2019-02-03T18:19:04.256Z,9.00
2019-02-03T18:21:32.809Z,9.00
2019-02-03T18:24:01.388Z,8.80
2019-02-03T18:26:30.047Z,8.10
2019-02-03T18:28:58.842Z,7.72
2019-02-03T18:31:27.429Z,7.55
2019-02-03T18:33:56.030Z,8.20
2019-02-03T18:36:24.603Z,9.03
2019-02-03T18:38:53.196Z,8.70
2019-02-03T18:41:21.770Z,9.43
2019-02-03T18:43:50.365Z,12.82
2019-02-03T18:46:19.119Z,10.95
2019-02-03T18:48:48.139Z,9.25
2019-02-03T18:51:17.478Z,9.28
2019-02-03T18:53:46.161Z,10.82
2019-02-03T18:56:15.117Z,11.22
2019-02-03T18:58:43.955Z,11.25
2019-02-03T19:01:12.556Z,10.60
2019-02-03T19:03:41.194Z,10.30
2019-02-03T19:06:09.835Z,9.88
2019-02-03T19:08:38.498Z,10.78
2019-02-03T19:11:07.653Z,11.38
2019-02-03T19:13:36.365Z,10.20
2019-02-03T19:16:05.872Z,11.48
2019-02-03T19:18:34.459Z,9.75
2019-02-03T19:21:03.226Z,10.80
2019-02-03T19:23:31.874Z,10.05
2019-02-03T19:26:00.647Z,9.80
2019-02-03T19:28:29.218Z,9.53
2019-02-03T19:30:57.827Z,11.88
2019-02-03T19:33:26.503Z,9.90
2019-02-03T19:35:55.544Z,9.58
2019-02-03T19:38:24.314Z,8.75
2019-02-03T19:40:53.367Z,8.85
2019-02-03T19:43:24.962Z,8.15
2019-02-03T19:45:53.290Z,9.40
2019-02-03T19:48:21.975Z,8.80
2019-02-03T19:50:51.245Z,9.98
2019-02-03T19:53:20.147Z,9.90
2019-02-03T19:55:48.748Z,9.23
2019-02-03T19:58:17.511Z,9.40
2019-02-03T20:00:46.102Z,8.90
2019-02-03T20:03:15.198Z,8.40
2019-02-03T20:05:43.757Z,8.53
2019-02-03T20:08:12.621Z,9.63
2019-02-03T20:10:41.354Z,9.73
2019-02-03T20:13:09.995Z,8.65
2019-02-03T20:15:38.814Z,8.63
2019-02-03T20:18:07.625Z,9.50
2019-02-03T20:20:36.762Z,8.55
2019-02-03T20:23:06.709Z,9.48
2019-02-03T20:25:35.713Z,8.85
2019-02-03T20:28:04.857Z,10.78
2019-02-03T20:30:38.717Z,10.45
2019-02-03T20:33:03.934Z,10.25
2019-02-03T20:35:32.520Z,10.25
2019-02-03T20:38:01.717Z,11.48
2019-02-03T20:40:32.176Z,10.82
2019-02-03T20:43:00.870Z,10.75
2019-02-03T20:45:29.883Z,11.83
2019-02-03T20:47:58.806Z,13.00
2019-02-03T20:50:27.852Z,12.35
2019-02-03T20:52:57.507Z,12.85
2019-02-03T20:55:26.198Z,12.53
2019-02-03T20:57:54.927Z,13.50
2019-02-03T21:00:25.634Z,14.03
2019-02-03T21:02:54.294Z,13.60
2019-02-03T21:05:23.075Z,13.38
2019-02-03T21:07:52.142Z,13.35
2019-02-03T21:10:21.398Z,14.23
2019-02-03T21:12:50.089Z,12.82
2019-02-03T21:15:20.509Z,13.43
2019-02-03T21:17:49.231Z,11.90
2019-02-03T21:20:19.978Z,12.50
2019-02-03T21:22:48.719Z,12.18
2019-02-03T21:25:17.848Z,13.38
2019-02-03T21:27:46.829Z,12.95
2019-02-03T21:30:18.205Z,12.82
2019-02-03T21:32:46.798Z,11.93
2019-02-03T21:35:15.813Z,12.50
2019-02-03T21:37:44.404Z,10.68
2019-02-03T21:40:15.841Z,12.73
2019-02-03T21:42:44.402Z,10.55
2019-02-03T21:45:13.272Z,12.55
2019-02-03T21:47:41.933Z,11.53
2019-02-03T21:50:13.789Z,11.40
2019-02-03T21:52:42.386Z,11.90
2019-02-03T21:55:11.861Z,12.65
2019-02-03T21:57:40.479Z,13.58
2019-02-03T22:00:12.769Z,12.95
2019-02-03T22:02:41.773Z,16.73
2019-02-03T22:05:10.544Z,12.73
2019-02-03T22:07:39.145Z,12.03
2019-02-03T22:10:10.347Z,12.93
2019-02-03T22:12:39.025Z,11.80
2019-02-03T22:15:07.700Z,12.33
2019-02-03T22:17:36.820Z,13.38
2019-02-03T22:20:07.290Z,12.98
2019-02-03T22:22:35.879Z,12.70
2019-02-03T22:25:05.107Z,12.30
2019-02-03T22:27:33.748Z,12.47
2019-02-03T22:30:02.326Z,11.55
2019-02-03T22:32:30.920Z,12.60
2019-02-03T22:34:59.781Z,15.28
2019-02-03T22:37:28.376Z,11.70
2019-02-03T22:39:56.950Z,11.50
2019-02-03T22:42:25.540Z,16.57
2019-02-03T22:44:54.182Z,13.08
2019-02-03T22:47:22.758Z,12.82
2019-02-03T22:49:51.584Z,12.68
2019-02-03T22:52:21.407Z,12.43
2019-02-03T22:54:49.975Z,13.65
2019-02-03T22:57:18.583Z,13.20
2019-02-03T22:59:47.424Z,14.20
2019-02-03T23:02:16.008Z,15.23
2019-02-03T23:04:44.587Z,14.10
2019-02-03T23:07:13.239Z,14.40
2019-02-03T23:09:41.799Z,15.25
2019-02-03T23:12:10.391Z,15.05
2019-02-03T23:14:39.238Z,16.65
2019-02-03T23:17:08.148Z,15.08
2019-02-03T23:19:36.725Z,17.60
2019-02-03T23:22:05.471Z,14.85
2019-02-03T23:24:34.053Z,14.45
2019-02-03T23:27:02.698Z,14.35
2019-02-03T23:29:31.640Z,12.20
2019-02-03T23:32:00.288Z,10.85
2019-02-03T23:34:28.855Z,11.50
2019-02-03T23:36:57.427Z,11.33
2019-02-03T23:39:25.991Z,11.48
2019-02-03T23:41:55.395Z,11.28
2019-02-03T23:44:24.267Z,11.18
2019-02-03T23:46:52.835Z,11.22
2019-02-03T23:49:21.418Z,10.48
2019-02-03T23:51:50.236Z,11.28
2019-02-03T23:54:18.843Z,10.08
2019-02-03T23:56:47.885Z,10.35
2019-02-03T23:59:16.843Z,10.70
